Time;durP1;ratioP1;P1;durP2;ratioP2;P2;SDS_P1;SDS_P2;PMS_P1;PMS_P2;Temp;Humidity;BMP_temperature;BMP_pressure;BME280_temperature;BME280_humidity;BME280_pressure;Samples;Min_cycle;Max_cycle;Signal;HPM_P1;HPM_P2
2021/08/29 00:00:49;;;;;;;15.37;5.53;;;16.00;94.20;;;;;;5052350;28;20121;-74
2021/08/29 00:03:15;;;;;;;12.03;4.93;;;16.00;94.20;;;;;;5052265;28;20052;-74
2021/08/29 00:05:40;;;;;;;13.27;4.47;;;16.00;94.20;;;;;;5050245;28;20098;-74
2021/08/29 00:08:06;;;;;;;14.07;4.30;;;16.00;94.20;;;;;;5051098;28;20044;-74
2021/08/29 00:10:32;;;;;;;12.63;5.47;;;16.00;94.20;;;;;;5052347;28;20041;-74
2021/08/29 00:12:58;;;;;;;16.07;4.80;;;16.00;94.20;;;;;;5051123;28;20072;-74
2021/08/29 00:15:24;;;;;;;12.67;5.20;;;16.00;94.20;;;;;;5052033;28;20123;-74
2021/08/29 00:17:49;;;;;;;12.63;4.97;;;16.00;94.30;;;;;;5051802;28;20067;-74
2021/08/29 00:20:15;;;;;;;9.57;4.33;;;16.00;94.30;;;;;;5051388;28;20053;-74
2021/08/29 00:22:41;;;;;;;7.93;4.10;;;16.00;94.30;;;;;;5050439;28;20056;-74
2021/08/29 00:25:07;;;;;;;12.67;4.60;;;16.00;94.30;;;;;;5050673;28;20037;-74
2021/08/29 00:27:32;;;;;;;12.07;4.77;;;16.00;94.20;;;;;;5051200;28;20128;-74
2021/08/29 00:29:58;;;;;;;10.37;4.93;;;16.00;94.30;;;;;;5050527;28;20091;-74
2021/08/29 00:32:23;;;;;;;10.70;4.83;;;16.00;94.20;;;;;;5051064;28;20045;-74
2021/08/29 00:34:49;;;;;;;12.97;4.50;;;16.00;94.20;;;;;;5051567;28;20053;-74
2021/08/29 00:37:14;;;;;;;15.33;4.97;;;16.00;94.20;;;;;;5050945;28;20041;-74
2021/08/29 00:39:40;;;;;;;12.10;4.77;;;16.10;94.20;;;;;;5050732;28;20055;-74
2021/08/29 00:42:07;;;;;;;14.57;4.83;;;16.00;94.20;;;;;;5050426;28;20083;-75
2021/08/29 00:44:33;;;;;;;17.47;5.13;;;16.10;94.20;;;;;;5051663;28;20037;-74
2021/08/29 00:46:59;;;;;;;11.53;5.07;;;16.10;94.10;;;;;;5050478;28;20366;-76
2021/08/29 00:49:24;;;;;;;9.83;4.47;;;16.10;94.10;;;;;;5050762;28;20127;-74
2021/08/29 00:51:54;;;;;;;13.73;5.20;;;16.10;94.10;;;;;;5051605;28;20037;-75
2021/08/29 00:54:22;;;;;;;11.87;4.60;;;16.10;94.00;;;;;;5051086;28;20056;-74
2021/08/29 00:56:48;;;;;;;13.40;4.60;;;16.10;94.00;;;;;;5051271;28;20045;-75
2021/08/29 00:59:13;;;;;;;9.37;4.70;;;16.10;94.00;;;;;;5051790;28;20464;-75
2021/08/29 01:01:42;;;;;;;12.20;5.23;;;16.10;94.00;;;;;;5049328;28;20049;-75
2021/08/29 01:04:20;;;;;;;11.60;5.10;;;16.10;94.00;;;;;;5051288;28;20151;-75
2021/08/29 01:06:53;;;;;;;13.67;5.40;;;16.10;94.00;;;;;;5051527;28;20048;-75
2021/08/29 01:09:20;;;;;;;13.97;5.17;;;16.20;94.00;;;;;;5049741;28;20044;-74
2021/08/29 01:11:52;;;;;;;12.50;5.00;;;16.20;93.90;;;;;;5051167;28;20079;-74
2021/08/29 01:14:24;;;;;;;11.13;4.77;;;16.20;94.00;;;;;;5051512;28;20048;-74
2021/08/29 01:16:53;;;;;;;12.57;5.20;;;16.20;93.90;;;;;;5049206;28;20124;-75
2021/08/29 01:19:29;;;;;;;12.13;4.90;;;16.20;93.80;;;;;;5051386;28;20164;-74
2021/08/29 01:21:55;;;;;;;10.77;4.67;;;16.20;93.80;;;;;;5049936;28;20064;-74
2021/08/29 01:24:24;;;;;;;13.37;5.20;;;16.20;93.80;;;;;;5051245;28;20131;-75
2021/08/29 01:26:57;;;;;;;17.30;4.73;;;16.30;93.80;;;;;;5050757;28;20040;-74
2021/08/29 01:29:28;;;;;;;13.50;5.10;;;16.20;93.70;;;;;;5050635;28;20045;-74
2021/08/29 01:31:55;;;;;;;16.15;5.22;;;16.20;93.70;;;;;;5050807;28;20055;-75
2021/08/29 01:34:20;;;;;;;11.83;4.83;;;16.30;93.70;;;;;;5051065;28;20044;-74
2021/08/29 01:36:50;;;;;;;12.77;4.93;;;16.30;93.70;;;;;;5049022;28;20110;-75
2021/08/29 01:39:16;;;;;;;19.73;4.77;;;16.20;93.90;;;;;;5049667;28;20490;-74
2021/08/29 01:41:45;;;;;;;11.77;5.33;;;16.20;93.70;;;;;;5050818;28;20052;-74
2021/08/29 01:44:11;;;;;;;13.20;4.80;;;16.20;93.80;;;;;;5048988;28;20057;-75
2021/08/29 01:46:40;;;;;;;9.00;4.30;;;16.20;93.80;;;;;;5050160;28;20123;-75
2021/08/29 01:49:07;;;;;;;12.93;4.53;;;16.20;93.80;;;;;;5049548;28;20455;-75
2021/08/29 01:51:34;;;;;;;12.93;4.87;;;16.20;93.80;;;;;;5050153;28;20033;-75
2021/08/29 01:54:00;;;;;;;9.97;4.10;;;16.20;93.80;;;;;;5050731;28;20405;-75
2021/08/29 01:56:26;;;;;;;11.67;4.50;;;16.20;93.80;;;;;;5051046;28;20452;-74
2021/08/29 01:58:51;;;;;;;11.53;4.70;;;16.20;93.80;;;;;;5049960;28;20053;-75
2021/08/29 02:01:18;;;;;;;13.93;4.20;;;16.20;93.80;;;;;;5050978;28;20072;-75
2021/08/29 02:03:44;;;;;;;14.13;5.23;;;16.20;93.80;;;;;;5050097;28;20131;-75
2021/08/29 02:06:30;;;;;;;13.13;4.63;;;16.20;93.80;;;;;;5052727;28;20053;-74
2021/08/29 02:09:01;;;;;;;14.20;3.97;;;16.20;93.90;;;;;;5054260;28;20457;-75
2021/08/29 02:11:32;;;;;;;12.30;3.83;;;16.10;93.90;;;;;;5052446;28;20045;-75
2021/08/29 02:14:02;;;;;;;12.25;4.43;;;16.10;93.90;;;;;;5054131;28;20053;-75
2021/08/29 02:16:33;;;;;;;12.53;3.90;;;16.10;93.90;;;;;;5054180;28;20041;-75
2021/08/29 02:18:59;;;;;;;13.97;4.77;;;16.10;93.90;;;;;;5053269;28;20840;-75
2021/08/29 02:21:29;;;;;;;10.00;4.10;;;16.10;93.90;;;;;;5054162;28;20136;-75
2021/08/29 02:23:57;;;;;;;14.17;4.23;;;16.10;93.90;;;;;;5053914;28;20084;-75
2021/08/29 02:26:24;;;;;;;9.83;4.50;;;16.10;94.00;;;;;;5052121;28;20045;-75
2021/08/29 02:28:51;;;;;;;8.83;3.70;;;16.10;93.90;;;;;;5053852;28;20091;-75
2021/08/29 02:31:21;;;;;;;10.07;4.00;;;16.10;93.90;;;;;;5053968;28;20075;-75
2021/08/29 02:33:47;;;;;;;9.67;4.20;;;16.10;93.90;;;;;;5051874;28;20045;-75
2021/08/29 02:36:15;;;;;;;11.87;4.17;;;16.10;93.90;;;;;;5053846;28;20502;-75
2021/08/29 02:38:43;;;;;;;13.80;4.60;;;16.10;93.80;;;;;;5053487;28;20045;-75
2021/08/29 02:41:09;;;;;;;13.87;4.20;;;16.10;93.80;;;;;;5053175;28;20071;-75
2021/08/29 02:43:36;;;;;;;10.00;4.37;;;16.10;93.80;;;;;;5052512;28;20068;-75
2021/08/29 02:46:03;;;;;;;11.47;4.53;;;16.10;93.70;;;;;;5052941;28;20059;-75
2021/08/29 02:48:30;;;;;;;14.23;4.00;;;16.10;93.70;;;;;;5053956;28;20046;-75
2021/08/29 02:50:57;;;;;;;11.83;4.60;;;16.10;93.70;;;;;;5053530;28;20033;-75
2021/08/29 02:53:23;;;;;;;9.40;4.00;;;16.10;93.70;;;;;;5052918;28;20120;-75
2021/08/29 02:55:56;;;;;;;11.87;3.80;;;16.10;93.60;;;;;;5053276;28;20593;-74
2021/08/29 02:58:21;;;;;;;9.50;3.57;;;16.10;93.50;;;;;;5053530;28;20056;-74
2021/08/29 03:00:47;;;;;;;11.17;3.90;;;16.10;93.50;;;;;;5052617;28;20049;-75
2021/08/29 03:03:13;;;;;;;9.20;3.97;;;16.10;93.50;;;;;;5053443;28;20049;-75
2021/08/29 03:05:39;;;;;;;11.27;3.90;;;16.10;93.30;;;;;;5053220;28;20049;-75
2021/08/29 03:08:05;;;;;;;9.40;3.63;;;16.10;93.30;;;;;;5052713;28;20037;-75
2021/08/29 03:10:31;;;;;;;13.40;3.63;;;16.10;93.20;;;;;;5053195;28;20060;-75
2021/08/29 03:13:02;;;;;;;8.43;3.53;;;16.10;93.10;;;;;;5053133;28;20485;-75
2021/08/29 03:15:30;;;;;;;10.25;3.70;;;16.10;93.00;;;;;;5052607;28;20045;-75
2021/08/29 03:17:56;;;;;;;9.93;3.97;;;16.10;92.90;;;;;;5051861;28;20037;-75
2021/08/29 03:20:23;;;;;;;10.50;3.60;;;16.20;92.90;;;;;;5052862;28;20494;-75
2021/08/29 03:22:49;;;;;;;14.50;3.97;;;16.20;92.80;;;;;;5052164;28;20059;-75
2021/08/29 03:25:15;;;;;;;11.63;4.17;;;16.20;92.70;;;;;;5053070;28;20116;-75
2021/08/29 03:27:41;;;;;;;11.63;3.87;;;16.20;92.70;;;;;;5052496;28;20059;-74
2021/08/29 03:30:08;;;;;;;11.47;3.93;;;16.20;92.60;;;;;;5051133;28;20103;-75
2021/08/29 03:32:34;;;;;;;10.57;3.30;;;16.20;92.60;;;;;;5053170;28;20041;-75
2021/08/29 03:35:01;;;;;;;11.17;3.77;;;16.20;92.60;;;;;;5052757;28;20052;-75
2021/08/29 03:37:28;;;;;;;12.27;3.23;;;16.20;92.60;;;;;;5052495;28;20107;-75
2021/08/29 03:39:56;;;;;;;14.00;3.50;;;16.20;92.60;;;;;;5052352;28;20101;-75
2021/08/29 03:42:23;;;;;;;10.63;4.30;;;16.20;92.60;;;;;;5052069;28;20045;-74
2021/08/29 03:44:49;;;;;;;7.60;3.17;;;16.20;92.60;;;;;;5051028;28;20037;-75
2021/08/29 03:47:15;;;;;;;10.13;3.43;;;16.20;92.60;;;;;;5051288;28;20041;-74
2021/08/29 03:49:41;;;;;;;9.03;3.70;;;16.30;92.70;;;;;;5051673;28;20075;-74
2021/08/29 03:52:07;;;;;;;10.37;3.90;;;16.30;92.70;;;;;;5052590;28;20036;-74
2021/08/29 03:54:34;;;;;;;18.17;4.10;;;16.30;92.60;;;;;;5052408;28;20405;-75
2021/08/29 03:57:00;;;;;;;10.33;3.63;;;16.30;92.50;;;;;;5051490;28;20049;-74
2021/08/29 03:59:26;;;;;;;11.10;3.23;;;16.30;92.50;;;;;;5052678;28;20044;-74
2021/08/29 04:01:51;;;;;;;11.50;3.97;;;16.30;92.50;;;;;;5050999;28;20052;-74
2021/08/29 04:04:17;;;;;;;9.67;3.67;;;16.30;92.50;;;;;;5051839;28;20064;-74
2021/08/29 04:06:45;;;;;;;10.83;3.10;;;16.30;92.50;;;;;;5052183;28;20466;-75
2021/08/29 04:09:12;;;;;;;12.27;4.23;;;16.30;92.50;;;;;;5052443;28;20129;-75
2021/08/29 04:11:42;;;;;;;13.87;3.40;;;16.30;92.60;;;;;;5051605;28;20044;-74
2021/08/29 04:14:12;;;;;;;14.70;4.20;;;16.30;92.70;;;;;;5052388;28;20087;-74
2021/08/29 04:16:38;;;;;;;13.67;4.10;;;16.30;92.70;;;;;;5050965;28;20059;-75
2021/08/29 04:19:05;;;;;;;11.33;3.70;;;16.30;92.80;;;;;;5051718;28;20084;-75
2021/08/29 04:21:31;;;;;;;13.30;3.90;;;16.40;93.00;;;;;;5050921;28;20057;-75
2021/08/29 04:23:57;;;;;;;10.97;3.57;;;16.40;93.10;;;;;;5051599;28;20060;-74
2021/08/29 04:26:23;;;;;;;13.17;3.97;;;16.30;93.20;;;;;;5049988;28;20056;-74
2021/08/29 04:28:49;;;;;;;14.37;3.90;;;16.30;93.30;;;;;;5051753;28;20057;-74
2021/08/29 04:31:28;;;;;;;10.90;3.50;;;16.40;93.40;;;;;;5051895;28;20049;-75
2021/08/29 04:33:54;;;;;;;10.57;3.77;;;16.40;93.70;;;;;;5050781;28;20044;-74
2021/08/29 04:36:20;;;;;;;10.37;3.80;;;16.40;93.70;;;;;;5050329;28;20482;-75
2021/08/29 04:38:46;;;;;;;14.40;4.90;;;16.40;93.80;;;;;;5050906;28;20033;-75
2021/08/29 04:41:11;;;;;;;14.50;4.10;;;16.30;93.90;;;;;;5051809;28;20537;-75
2021/08/29 04:43:37;;;;;;;16.47;3.93;;;16.40;94.10;;;;;;5051735;28;20098;-75
2021/08/29 04:46:04;;;;;;;16.00;4.60;;;16.30;94.40;;;;;;5050800;28;20045;-75
2021/08/29 04:48:30;;;;;;;12.97;4.40;;;16.30;94.70;;;;;;5051680;28;20083;-75
2021/08/29 04:50:56;;;;;;;11.07;4.37;;;16.20;95.10;;;;;;5051457;28;20106;-74
2021/08/29 04:53:21;;;;;;;15.30;4.27;;;16.10;95.50;;;;;;5049375;28;20138;-74
2021/08/29 04:55:47;;;;;;;13.00;4.53;;;15.90;95.90;;;;;;5040032;28;20045;-73
2021/08/29 04:58:12;;;;;;;14.30;4.13;;;15.80;96.30;;;;;;5041801;28;20087;-74
2021/08/29 05:00:38;;;;;;;13.87;4.30;;;15.70;96.60;;;;;;5039379;28;20080;-72
2021/08/29 05:03:04;;;;;;;10.70;3.83;;;15.60;96.90;;;;;;5040686;28;20041;-75
2021/08/29 05:05:29;;;;;;;11.60;3.90;;;15.50;97.30;;;;;;5036068;28;20125;-73
2021/08/29 05:07:55;;;;;;;10.27;3.57;;;15.40;97.30;;;;;;5040769;28;20216;-73
2021/08/29 05:10:20;;;;;;;10.47;3.13;;;15.30;97.20;;;;;;5041539;28;20041;-73
2021/08/29 05:12:46;;;;;;;11.07;4.00;;;15.30;97.30;;;;;;5042499;28;20045;-75
2021/08/29 05:15:11;;;;;;;10.50;3.50;;;15.20;97.40;;;;;;5038544;28;20087;-75
2021/08/29 05:17:37;;;;;;;11.20;4.00;;;15.20;97.40;;;;;;5040071;28;20096;-72
2021/08/29 05:20:04;;;;;;;11.87;4.27;;;15.20;97.60;;;;;;5041881;28;20081;-74
2021/08/29 05:22:29;;;;;;;18.00;4.80;;;15.20;97.60;;;;;;5040555;28;20071;-73
2021/08/29 05:24:55;;;;;;;10.67;3.80;;;15.20;97.70;;;;;;5038732;28;20053;-73
2021/08/29 05:27:20;;;;;;;13.17;4.53;;;15.20;97.90;;;;;;5041468;28;20037;-74
2021/08/29 05:29:46;;;;;;;13.77;4.47;;;15.20;97.90;;;;;;5040821;28;20040;-74
2021/08/29 05:32:12;;;;;;;16.60;4.70;;;15.20;98.00;;;;;;5040435;28;20405;-73
2021/08/29 05:34:37;;;;;;;13.70;4.00;;;15.20;98.00;;;;;;5042398;28;20379;-72
2021/08/29 05:37:03;;;;;;;12.83;4.20;;;15.20;98.10;;;;;;5041013;28;20501;-73
2021/08/29 05:39:29;;;;;;;14.93;4.07;;;15.20;98.20;;;;;;5039699;28;20557;-73
2021/08/29 05:41:54;;;;;;;16.47;4.20;;;15.30;98.40;;;;;;5045420;28;20144;-74
2021/08/29 05:44:20;;;;;;;18.63;4.37;;;15.20;98.60;;;;;;5044273;28;20700;-74
2021/08/29 05:46:46;;;;;;;13.83;4.50;;;15.20;98.80;;;;;;5045914;28;20048;-75
2021/08/29 05:49:11;;;;;;;17.50;4.03;;;15.20;98.90;;;;;;5054420;28;20492;-75
2021/08/29 05:51:37;;;;;;;14.50;4.20;;;15.20;98.90;;;;;;5055459;28;20099;-73
2021/08/29 05:54:03;;;;;;;17.27;4.83;;;15.20;99.40;;;;;;5054537;28;20045;-70
2021/08/29 05:56:28;;;;;;;17.50;4.33;;;15.20;99.30;;;;;;5053005;28;20140;-71
2021/08/29 05:58:54;;;;;;;15.33;4.07;;;15.10;99.50;;;;;;5054581;28;20072;-70
2021/08/29 06:01:20;;;;;;;20.37;4.77;;;15.10;99.50;;;;;;5054784;28;20091;-71
2021/08/29 06:03:45;;;;;;;17.97;4.70;;;15.20;99.60;;;;;;5052851;28;20044;-70
2021/08/29 06:06:11;;;;;;;18.50;4.80;;;15.10;99.80;;;;;;5054796;28;20041;-71
2021/08/29 06:08:36;;;;;;;15.03;4.30;;;15.10;99.90;;;;;;5054483;28;20036;-70
2021/08/29 06:11:03;;;;;;;18.97;4.83;;;15.10;99.90;;;;;;5053591;28;20056;-70
2021/08/29 06:13:29;;;;;;;18.13;4.53;;;15.10;99.90;;;;;;5053652;28;20045;-71
2021/08/29 06:15:55;;;;;;;17.33;4.47;;;15.10;99.90;;;;;;5054130;28;20057;-70
2021/08/29 06:18:20;;;;;;;12.43;4.00;;;15.10;99.90;;;;;;5053617;28;20044;-70
2021/08/29 06:20:46;;;;;;;16.83;4.43;;;15.10;99.90;;;;;;5052476;28;20101;-70
2021/08/29 06:23:12;;;;;;;11.13;3.43;;;15.20;99.90;;;;;;5044086;28;20064;-70
2021/08/29 06:25:37;;;;;;;13.03;4.10;;;15.10;99.90;;;;;;5042487;28;20070;-70
2021/08/29 06:28:03;;;;;;;12.60;3.50;;;15.20;99.90;;;;;;5044507;28;20064;-70
2021/08/29 06:30:29;;;;;;;12.13;3.80;;;15.20;99.90;;;;;;5042873;28;20040;-69
2021/08/29 06:32:55;;;;;;;19.97;4.00;;;15.20;99.90;;;;;;5041317;28;20102;-70
2021/08/29 06:35:20;;;;;;;18.03;3.87;;;15.30;99.90;;;;;;5044450;28;20081;-70
2021/08/29 06:37:46;;;;;;;19.50;4.30;;;15.30;99.90;;;;;;5042408;28;20037;-70
2021/08/29 06:40:12;;;;;;;14.80;3.93;;;15.30;99.90;;;;;;5042794;28;20045;-70
2021/08/29 06:42:38;;;;;;;21.17;4.63;;;15.30;99.90;;;;;;5044054;28;20069;-70
2021/08/29 06:45:03;;;;;;;20.67;4.03;;;15.30;99.90;;;;;;5041579;28;20045;-70
2021/08/29 06:47:29;;;;;;;16.63;4.90;;;15.40;99.90;;;;;;5043855;28;20049;-69
2021/08/29 06:49:55;;;;;;;20.60;4.30;;;15.30;99.90;;;;;;5041769;28;20096;-69
2021/08/29 06:52:21;;;;;;;17.63;4.50;;;15.30;99.90;;;;;;5040097;28;20040;-70
2021/08/29 06:54:46;;;;;;;17.00;4.70;;;15.30;99.90;;;;;;5041963;28;20064;-71
2021/08/29 06:57:12;;;;;;;20.03;4.63;;;15.30;99.90;;;;;;5042408;28;20099;-70
2021/08/29 06:59:37;;;;;;;14.27;4.17;;;15.30;99.90;;;;;;5041711;28;20099;-71
2021/08/29 07:02:03;;;;;;;14.53;4.90;;;15.30;99.90;;;;;;5041730;28;20056;-70
2021/08/29 07:04:29;;;;;;;20.67;5.53;;;15.30;99.90;;;;;;5047812;28;20055;-70
2021/08/29 07:06:54;;;;;;;17.97;5.53;;;15.30;99.90;;;;;;5052922;28;20037;-71
2021/08/29 07:09:20;;;;;;;20.57;6.20;;;15.30;99.90;;;;;;5053369;28;20052;-68
2021/08/29 07:11:45;;;;;;;20.07;6.20;;;15.30;99.90;;;;;;5045490;28;20552;-69
2021/08/29 07:14:11;;;;;;;14.73;6.30;;;15.30;99.90;;;;;;5049693;28;20056;-68
2021/08/29 07:16:36;;;;;;;25.20;6.37;;;15.30;99.90;;;;;;5049550;28;20053;-69
2021/08/29 07:19:02;;;;;;;18.67;7.20;;;15.40;99.90;;;;;;5049816;28;20037;-69
2021/08/29 07:21:28;;;;;;;18.13;7.23;;;15.40;99.90;;;;;;5049342;28;20049;-69
2021/08/29 07:23:53;;;;;;;22.37;7.00;;;15.40;99.90;;;;;;5049834;28;20089;-70
2021/08/29 07:26:19;;;;;;;20.70;6.10;;;15.40;99.90;;;;;;5048385;28;20052;-71
2021/08/29 07:28:44;;;;;;;18.40;6.33;;;15.40;99.90;;;;;;5048349;28;20053;-69
2021/08/29 07:31:11;;;;;;;18.63;6.80;;;15.50;99.90;;;;;;5050042;28;20495;-69
2021/08/29 07:33:37;;;;;;;20.13;7.23;;;15.50;99.90;;;;;;5049467;28;20114;-69
2021/08/29 07:36:03;;;;;;;19.13;6.40;;;15.50;99.90;;;;;;5048289;28;20549;-70
2021/08/29 07:38:29;;;;;;;19.50;6.33;;;15.60;99.90;;;;;;5049508;28;20464;-71
2021/08/29 07:40:54;;;;;;;18.93;6.80;;;15.60;99.90;;;;;;5049294;28;20128;-69
2021/08/29 07:43:20;;;;;;;16.50;6.97;;;15.70;99.90;;;;;;5048406;28;20087;-69
2021/08/29 07:45:46;;;;;;;14.77;6.17;;;15.70;99.90;;;;;;5049080;28;20049;-68
2021/08/29 07:48:11;;;;;;;19.33;6.97;;;15.80;99.90;;;;;;5049464;28;20083;-68
2021/08/29 07:50:37;;;;;;;18.77;6.80;;;15.80;99.90;;;;;;5048332;28;20045;-69
2021/08/29 07:53:03;;;;;;;18.20;6.77;;;15.80;99.90;;;;;;5047201;28;20465;-69
2021/08/29 07:55:29;;;;;;;20.13;7.13;;;15.80;99.90;;;;;;5048239;28;20044;-69
2021/08/29 07:57:54;;;;;;;21.73;7.13;;;15.90;99.90;;;;;;5049466;28;20048;-68
2021/08/29 08:00:20;;;;;;;22.07;7.13;;;15.90;99.90;;;;;;5047611;28;20599;-68
2021/08/29 08:02:46;;;;;;;20.23;6.23;;;16.00;99.90;;;;;;5046982;28;20041;-69
2021/08/29 08:05:12;;;;;;;19.43;7.13;;;16.00;99.90;;;;;;5049141;28;20040;-68
2021/08/29 08:07:38;;;;;;;19.40;6.23;;;16.10;99.90;;;;;;5048556;28;20132;-69
2021/08/29 08:10:05;;;;;;;12.17;5.60;;;16.10;99.90;;;;;;5046488;28;20051;-68
2021/08/29 08:12:31;;;;;;;18.30;5.77;;;16.10;99.90;;;;;;5048609;28;20095;-69
2021/08/29 08:14:56;;;;;;;19.63;6.23;;;16.20;99.90;;;;;;5048433;28;20450;-69
2021/08/29 08:17:22;;;;;;;11.97;6.17;;;16.20;99.90;;;;;;5047650;28;20080;-68
2021/08/29 08:19:47;;;;;;;11.63;5.23;;;16.30;99.90;;;;;;5047715;28;20053;-69
2021/08/29 08:22:13;;;;;;;10.20;4.97;;;16.30;99.90;;;;;;5048131;28;20045;-69
2021/08/29 08:24:41;;;;;;;13.43;4.80;;;16.30;99.90;;;;;;5046836;28;20063;-71
2021/08/29 08:27:07;;;;;;;11.13;5.50;;;16.40;99.90;;;;;;5048037;28;20052;-69
2021/08/29 08:29:32;;;;;;;12.17;4.60;;;16.30;99.90;;;;;;5047879;28;20041;-68
2021/08/29 08:31:58;;;;;;;9.30;4.27;;;16.30;99.90;;;;;;5047593;28;20049;-68
2021/08/29 08:34:24;;;;;;;10.50;4.37;;;16.30;99.90;;;;;;5046864;28;20048;-67
2021/08/29 08:36:49;;;;;;;7.70;4.40;;;16.30;99.90;;;;;;5047938;28;20041;-68
2021/08/29 08:39:15;;;;;;;10.77;4.13;;;16.20;99.90;;;;;;5047570;28;20133;-68
2021/08/29 08:41:40;;;;;;;10.73;4.37;;;16.30;99.90;;;;;;5048143;28;20194;-69
2021/08/29 08:44:07;;;;;;;17.70;4.30;;;16.30;99.90;;;;;;5047478;28;20135;-67
2021/08/29 08:46:33;;;;;;;7.93;4.33;;;16.30;99.90;;;;;;5046839;28;20040;-68
2021/08/29 08:49:01;;;;;;;11.77;4.23;;;16.30;99.90;;;;;;5046539;28;20172;-68
2021/08/29 08:51:29;;;;;;;11.67;4.50;;;16.30;99.90;;;;;;5047673;28;20045;-67
2021/08/29 08:53:58;;;;;;;10.43;4.27;;;16.30;99.90;;;;;;5045460;28;20040;-68
2021/08/29 08:56:25;;;;;;;9.93;4.23;;;16.30;99.90;;;;;;5040788;28;20405;-68
2021/08/29 08:58:55;;;;;;;5.87;3.80;;;16.30;99.90;;;;;;5043501;28;20053;-67
2021/08/29 09:01:21;;;;;;;6.97;4.13;;;16.30;99.90;;;;;;5047880;28;20053;-68
2021/08/29 09:03:47;;;;;;;10.80;4.60;;;16.40;99.90;;;;;;5045446;28;20421;-68
2021/08/29 09:06:13;;;;;;;11.80;4.30;;;16.30;99.90;;;;;;5036502;28;20091;-68
2021/08/29 09:08:39;;;;;;;10.67;4.00;;;16.30;99.90;;;;;;5039127;28;20038;-68
2021/08/29 09:11:06;;;;;;;11.93;4.20;;;16.30;99.90;;;;;;5035592;28;20095;-69
2021/08/29 09:13:57;;;;;;;7.73;4.50;;;16.40;99.90;;;;;;5029320;28;20478;-67
2021/08/29 09:16:25;;;;;;;;;;;16.40;99.90;;;;;;5022265;28;20106;-66
2021/08/29 09:18:55;;;;;;;8.77;3.67;;;16.40;99.90;;;;;;5041627;28;19936;-68
2021/08/29 09:21:23;;;;;;;9.23;4.37;;;16.40;99.90;;;;;;5038915;28;20069;-68
2021/08/29 09:23:49;;;;;;;10.27;4.50;;;16.40;99.90;;;;;;5044892;28;20045;-68
2021/08/29 09:26:19;;;;;;;11.47;3.60;;;16.50;99.90;;;;;;5041443;28;20080;-68
2021/08/29 09:28:48;;;;;;;8.63;3.90;;;16.50;99.90;;;;;;5041334;28;20079;-66
2021/08/29 09:31:15;;;;;;;9.40;4.33;;;16.50;99.90;;;;;;5040798;28;20062;-66
2021/08/29 09:33:42;;;;;;;7.87;4.23;;;16.50;99.90;;;;;;5038984;28;20110;-68
2021/08/29 09:36:11;;;;;;;8.07;4.03;;;16.60;99.90;;;;;;5040925;28;20053;-67
2021/08/29 09:38:38;;;;;;;10.03;3.87;;;16.60;99.90;;;;;;5041573;28;20429;-68
2021/08/29 09:41:20;;;;;;;7.70;4.40;;;16.60;99.90;;;;;;5039560;28;20116;-68
2021/08/29 09:43:45;;;;;;;7.45;3.63;;;16.60;99.80;;;;;;5031497;28;20089;-68
2021/08/29 09:46:11;;;;;;;9.63;4.33;;;16.70;99.80;;;;;;5039921;28;20402;-67
2021/08/29 09:48:37;;;;;;;9.10;3.77;;;16.70;99.70;;;;;;5039329;28;20473;-68
2021/08/29 09:51:02;;;;;;;8.97;4.03;;;16.70;99.70;;;;;;5040555;28;20045;-68
2021/08/29 09:53:40;;;;;;;6.37;3.60;;;16.70;99.60;;;;;;5045363;28;20408;-68
2021/08/29 09:56:19;;;;;;;8.83;3.40;;;16.80;99.60;;;;;;5042335;28;20134;-70
2021/08/29 09:58:44;;;;;;;7.13;3.13;;;16.80;99.50;;;;;;5037707;28;20501;-69
2021/08/29 10:01:15;;;;;;;8.07;3.10;;;16.70;99.40;;;;;;5040535;28;20133;-68
2021/08/29 10:03:52;;;;;;;11.47;3.87;;;16.80;99.40;;;;;;5033599;28;20152;-69
2021/08/29 10:06:19;;;;;;;6.87;3.10;;;16.70;99.30;;;;;;5031160;28;20057;-70
2021/08/29 10:08:48;;;;;;;8.37;3.40;;;16.70;99.40;;;;;;5033141;28;20427;-68
2021/08/29 10:11:14;;;;;;;10.37;4.00;;;16.80;99.50;;;;;;5040293;28;20047;-67
2021/08/29 10:13:40;;;;;;;9.47;3.53;;;16.80;99.50;;;;;;5038877;28;20045;-68
2021/08/29 10:16:06;;;;;;;9.03;3.80;;;16.80;99.40;;;;;;5038885;28;20041;-69
2021/08/29 10:18:36;;;;;;;6.57;3.73;;;16.80;99.40;;;;;;5040852;28;20494;-67
2021/08/29 10:21:04;;;;;;;10.00;3.67;;;16.80;99.40;;;;;;5035510;28;20105;-68
2021/08/29 10:23:30;;;;;;;8.80;3.73;;;16.90;99.40;;;;;;5038358;28;20033;-68
2021/08/29 10:26:02;;;;;;;8.13;4.30;;;16.90;99.40;;;;;;5040363;28;20110;-68
2021/08/29 10:28:38;;;;;;;8.45;4.00;;;16.90;99.40;;;;;;5040048;28;20066;-69
2021/08/29 10:31:05;;;;;;;7.93;4.20;;;17.00;99.30;;;;;;5037472;28;20052;-70
2021/08/29 10:33:33;;;;;;;9.90;3.83;;;17.00;99.30;;;;;;5039184;28;20046;-70
2021/08/29 10:35:58;;;;;;;7.20;3.90;;;17.10;99.20;;;;;;5041798;28;20052;-68
2021/08/29 10:38:24;;;;;;;8.67;3.97;;;17.10;99.20;;;;;;5037983;28;20390;-70
2021/08/29 10:40:51;;;;;;;9.20;4.07;;;17.20;99.10;;;;;;5037223;28;20041;-70
2021/08/29 10:43:17;;;;;;;9.60;4.03;;;17.20;99.00;;;;;;5040750;28;20045;-69
2021/08/29 10:45:43;;;;;;;8.70;4.57;;;17.20;99.00;;;;;;5036579;28;20046;-69
2021/08/29 10:48:11;;;;;;;11.60;4.53;;;17.20;99.00;;;;;;5039752;28;20055;-68
2021/08/29 10:50:38;;;;;;;7.53;4.30;;;17.10;99.00;;;;;;5038663;28;20045;-68
2021/08/29 10:53:35;;;;;;;11.10;4.30;;;17.10;99.10;;;;;;5037496;28;20055;-67
2021/08/29 10:56:16;;;;;;;6.10;4.17;;;17.10;99.20;;;;;;5039389;28;20068;-67
2021/08/29 10:58:46;;;;;;;8.27;4.45;;;17.10;99.20;;;;;;5039371;28;20525;-69
2021/08/29 11:01:36;;;;;;;7.57;4.10;;;17.10;99.30;;;;;;5037346;28;20041;-70
2021/08/29 11:04:17;;;;;;;7.33;4.30;;;17.10;99.30;;;;;;5036613;28;20049;-67
2021/08/29 11:06:50;;;;;;;8.98;4.05;;;17.10;99.30;;;;;;5042595;28;21045;-67
2021/08/29 11:09:34;;;;;;;6.03;4.07;;;17.10;99.30;;;;;;5049817;28;20067;-67
2021/08/29 11:12:15;;;;;;;7.90;4.13;;;17.10;99.20;;;;;;5046809;28;20056;-66
2021/08/29 11:14:44;;;;;;;6.45;3.85;;;17.20;99.20;;;;;;5038744;28;20413;-68
2021/08/29 11:17:14;;;;;;;10.27;4.17;;;17.10;99.20;;;;;;5038684;28;20045;-67
2021/08/29 11:19:45;;;;;;;12.18;5.50;;;17.10;99.20;;;;;;5027606;28;20154;-67
2021/08/29 11:22:12;;;;;;;8.93;4.82;;;17.10;99.30;;;;;;5032719;28;20549;-67
2021/08/29 11:24:53;;;;;;;9.97;4.37;;;17.10;99.40;;;;;;5028107;28;20041;-67
2021/08/29 11:27:38;;;;;;;7.32;4.55;;;17.10;99.40;;;;;;5047395;28;20150;-67
2021/08/29 11:30:19;;;;;;;11.03;4.40;;;17.00;99.40;;;;;;5050092;28;20121;-67
2021/08/29 11:32:57;;;;;;;12.07;4.27;;;17.00;99.50;;;;;;5047814;28;20037;-67
2021/08/29 11:35:22;;;;;;;8.07;4.10;;;17.00;99.60;;;;;;5046910;28;20299;-67
2021/08/29 11:38:07;;;;;;;8.73;4.73;;;17.00;99.60;;;;;;5048250;28;20482;-67
2021/08/29 11:40:56;;;;;;;10.03;4.63;;;17.00;99.70;;;;;;5047272;28;20049;-67
2021/08/29 11:43:27;;;;;;;7.67;4.30;;;17.10;99.70;;;;;;5048079;28;20465;-67
2021/08/29 11:46:14;;;;;;;10.57;5.07;;;17.10;99.70;;;;;;5048502;28;20574;-66
2021/08/29 11:48:58;;;;;;;9.03;4.57;;;17.20;99.60;;;;;;5046811;28;20070;-66
2021/08/29 11:51:23;;;;;;;9.70;4.90;;;17.20;99.60;;;;;;5038773;28;20042;-66
2021/08/29 11:53:49;;;;;;;8.93;4.93;;;17.20;99.50;;;;;;5029018;28;20518;-66
2021/08/29 11:56:18;;;;;;;10.83;5.47;;;17.20;99.50;;;;;;5054287;28;20045;-67
2021/08/29 11:58:47;;;;;;;11.70;5.90;;;17.20;99.50;;;;;;5068922;28;20103;-67
2021/08/29 12:01:14;;;;;;;8.80;5.10;;;17.20;99.50;;;;;;5069157;28;20045;-66
2021/08/29 12:03:40;;;;;;;10.17;5.23;;;17.10;99.50;;;;;;5068271;28;20051;-66
2021/08/29 12:06:14;;;;;;;10.97;5.47;;;17.20;99.60;;;;;;5068905;28;20442;-66
2021/08/29 12:09:02;;;;;;;9.47;4.80;;;17.20;99.60;;;;;;5067136;28;20068;-66
2021/08/29 12:11:31;;;;;;;11.53;5.37;;;17.30;99.50;;;;;;5068445;28;20048;-66
2021/08/29 12:13:57;;;;;;;14.67;5.20;;;17.30;99.30;;;;;;5068515;28;20048;-67
2021/08/29 12:16:24;;;;;;;11.50;4.93;;;17.40;99.60;;;;;;5066751;28;20483;-66
2021/08/29 12:18:51;;;;;;;8.87;5.03;;;17.50;99.10;;;;;;5071597;28;20063;-66
2021/08/29 12:21:17;;;;;;;10.07;5.77;;;17.40;98.90;;;;;;5071939;28;20056;-66
2021/08/29 12:23:44;;;;;;;10.60;5.77;;;17.40;98.90;;;;;;5070923;28;20048;-66
2021/08/29 12:26:10;;;;;;;14.07;5.93;;;17.40;98.90;;;;;;5070910;28;20048;-67
2021/08/29 12:28:37;;;;;;;10.00;4.97;;;17.30;98.90;;;;;;5071931;28;20434;-67
2021/08/29 12:31:03;;;;;;;9.20;5.00;;;17.40;98.90;;;;;;5069461;28;20105;-67
2021/08/29 12:33:29;;;;;;;8.43;4.70;;;17.30;98.80;;;;;;5071893;28;20528;-67
2021/08/29 12:35:56;;;;;;;13.37;5.70;;;17.40;98.90;;;;;;5071270;28;20175;-67
2021/08/29 12:38:25;;;;;;;10.37;5.37;;;17.40;98.90;;;;;;5070727;28;20049;-67
2021/08/29 12:40:52;;;;;;;12.47;5.47;;;17.40;98.80;;;;;;5071391;28;20060;-67
2021/08/29 12:43:19;;;;;;;6.93;4.43;;;17.50;98.80;;;;;;5071596;28;20096;-66